sensor_id;sensor_type;location;lat;lon;timestamp;pressure;altitude;pressure_sealevel;temperature;humidity
10720;BME280;5411;58.386;15.560;2023-02-13T00:01:24;101567.28;;;4.48;100.00
10720;BME280;5411;58.386;15.560;2023-02-13T00:03:52;101555.00;;;4.47;100.00
10720;BME280;5411;58.386;15.560;2023-02-13T00:06:20;101558.50;;;4.48;100.00
10720;BME280;5411;58.386;15.560;2023-02-13T00:08:49;101555.84;;;4.48;100.00
10720;BME280;5411;58.386;15.560;2023-02-13T00:11:19;101560.19;;;4.49;100.00
10720;BME280;5411;58.386;15.560;2023-02-13T00:13:47;101553.91;;;4.50;100.00
10720;BME280;5411;58.386;15.560;2023-02-13T00:16:15;101551.97;;;4.52;100.00
10720;BME280;5411;58.386;15.560;2023-02-13T00:18:44;101549.03;;;4.55;100.00
10720;BME280;5411;58.386;15.560;2023-02-13T00:21:12;101553.22;;;4.57;100.00
10720;BME280;5411;58.386;15.560;2023-02-13T00:23:40;101560.91;;;4.60;100.00
10720;BME280;5411;58.386;15.560;2023-02-13T00:26:10;101572.09;;;4.64;100.00
10720;BME280;5411;58.386;15.560;2023-02-13T00:28:41;101567.63;;;4.64;100.00
10720;BME280;5411;58.386;15.560;2023-02-13T00:31:11;101560.53;;;4.65;100.00
10720;BME280;5411;58.386;15.560;2023-02-13T00:33:40;101565.81;;;4.65;100.00
10720;BME280;5411;58.386;15.560;2023-02-13T00:36:10;101567.47;;;4.66;100.00
10720;BME280;5411;58.386;15.560;2023-02-13T00:38:39;101563.00;;;4.66;100.00
10720;BME280;5411;58.386;15.560;2023-02-13T00:41:09;101554.09;;;4.68;100.00
10720;BME280;5411;58.386;15.560;2023-02-13T00:43:38;101556.88;;;4.66;100.00
10720;BME280;5411;58.386;15.560;2023-02-13T00:46:08;101554.94;;;4.68;100.00
10720;BME280;5411;58.386;15.560;2023-02-13T00:48:36;101549.63;;;4.68;100.00
10720;BME280;5411;58.386;15.560;2023-02-13T00:51:05;101548.78;;;4.68;100.00
10720;BME280;5411;58.386;15.560;2023-02-13T00:53:35;101552.28;;;4.68;100.00
10720;BME280;5411;58.386;15.560;2023-02-13T00:56:05;101550.34;;;4.70;100.00
10720;BME280;5411;58.386;15.560;2023-02-13T00:58:34;101546.72;;;4.71;100.00
10720;BME280;5411;58.386;15.560;2023-02-13T01:01:02;101536.13;;;4.71;100.00
10720;BME280;5411;58.386;15.560;2023-02-13T01:03:32;101540.44;;;4.72;100.00
10720;BME280;5411;58.386;15.560;2023-02-13T01:06:00;101540.44;;;4.72;100.00
10720;BME280;5411;58.386;15.560;2023-02-13T01:08:29;101537.09;;;4.70;100.00
10720;BME280;5411;58.386;15.560;2023-02-13T01:10:57;101535.28;;;4.71;100.00
10720;BME280;5411;58.386;15.560;2023-02-13T01:13:26;101534.69;;;4.67;100.00
10720;BME280;5411;58.386;15.560;2023-02-13T01:15:54;101537.09;;;4.70;100.00
10720;BME280;5411;58.386;15.560;2023-02-13T01:18:23;101533.59;;;4.70;100.00
10720;BME280;5411;58.386;15.560;2023-02-13T01:20:57;101530.38;;;4.66;100.00
10720;BME280;5411;58.386;15.560;2023-02-13T01:23:29;101535.66;;;4.66;100.00
10720;BME280;5411;58.386;15.560;2023-02-13T01:25:58;101528.84;;;4.63;100.00
10720;BME280;5411;58.386;15.560;2023-02-13T01:28:26;101536.66;;;4.65;100.00
10720;BME280;5411;58.386;15.560;2023-02-13T01:30:55;101535.66;;;4.66;100.00
10720;BME280;5411;58.386;15.560;2023-02-13T01:33:26;101529.13;;;4.60;100.00
10720;BME280;5411;58.386;15.560;2023-02-13T01:35:56;101537.50;;;4.65;100.00
10720;BME280;5411;58.386;15.560;2023-02-13T01:38:26;101534.88;;;4.65;100.00
10720;BME280;5411;58.386;15.560;2023-02-13T01:40:54;101532.88;;;4.68;100.00
10720;BME280;5411;58.386;15.560;2023-02-13T01:43:23;101524.81;;;4.69;100.00
10720;BME280;5411;58.386;15.560;2023-02-13T01:45:54;101523.00;;;4.70;100.00
10720;BME280;5411;58.386;15.560;2023-02-13T01:48:24;101536.94;;;4.72;100.00
10720;BME280;5411;58.386;15.560;2023-02-13T01:51:00;101532.34;;;4.74;100.00
10720;BME280;5411;58.386;15.560;2023-02-13T01:53:34;101533.19;;;4.74;100.00
10720;BME280;5411;58.386;15.560;2023-02-13T01:56:10;101533.91;;;4.76;100.00
10720;BME280;5411;58.386;15.560;2023-02-13T01:58:40;101534.88;;;4.75;100.00
10720;BME280;5411;58.386;15.560;2023-02-13T02:01:10;101534.75;;;4.77;100.00
10720;BME280;5411;58.386;15.560;2023-02-13T02:03:42;101526.94;;;4.75;100.00
10720;BME280;5411;58.386;15.560;2023-02-13T02:06:18;101516.44;;;4.74;100.00
10720;BME280;5411;58.386;15.560;2023-02-13T02:08:48;101516.91;;;4.79;100.00
10720;BME280;5411;58.386;15.560;2023-02-13T02:11:24;101518.53;;;4.80;100.00
10720;BME280;5411;58.386;15.560;2023-02-13T02:13:54;101508.38;;;4.75;100.00
10720;BME280;5411;58.386;15.560;2023-02-13T02:16:24;101513.09;;;4.81;100.00
10720;BME280;5411;58.386;15.560;2023-02-13T02:18:53;101506.97;;;4.81;100.00
10720;BME280;5411;58.386;15.560;2023-02-13T02:21:45;101502.63;;;4.80;100.00
10720;BME280;5411;58.386;15.560;2023-02-13T02:27:17;101497.34;;;4.80;100.00
10720;BME280;5411;58.386;15.560;2023-02-13T02:33:20;101499.00;;;4.81;100.00
10720;BME280;5411;58.386;15.560;2023-02-13T02:36:04;101496.22;;;4.82;100.00
10720;BME280;5411;58.386;15.560;2023-02-13T02:38:48;101496.09;;;4.84;100.00
10720;BME280;5411;58.386;15.560;2023-02-13T02:41:26;101496.66;;;4.87;100.00
10720;BME280;5411;58.386;15.560;2023-02-13T02:44:20;101493.88;;;4.89;100.00
10720;BME280;5411;58.386;15.560;2023-02-13T02:47:04;101491.94;;;4.91;100.00
10720;BME280;5411;58.386;15.560;2023-02-13T02:50:08;101488.00;;;4.95;100.00
10720;BME280;5411;58.386;15.560;2023-02-13T02:52:44;101496.81;;;4.95;100.00
10720;BME280;5411;58.386;15.560;2023-02-13T02:55:21;101489.94;;;4.93;100.00
10720;BME280;5411;58.386;15.560;2023-02-13T02:58:01;101487.75;;;4.98;100.00
10720;BME280;5411;58.386;15.560;2023-02-13T03:00:49;101490.25;;;4.99;100.00
10720;BME280;5411;58.386;15.560;2023-02-13T03:03:37;101490.13;;;5.01;100.00
10720;BME280;5411;58.386;15.560;2023-02-13T03:06:28;101485.78;;;5.00;100.00
10720;BME280;5411;58.386;15.560;2023-02-13T03:09:01;101481.59;;;4.97;100.00
10720;BME280;5411;58.386;15.560;2023-02-13T03:11:50;101491.38;;;4.97;100.00
10720;BME280;5411;58.386;15.560;2023-02-13T03:14:39;101491.50;;;4.95;100.00
10720;BME280;5411;58.386;15.560;2023-02-13T03:17:10;101488.84;;;4.95;100.00
10720;BME280;5411;58.386;15.560;2023-02-13T03:20:09;101502.25;;;4.94;100.00
10720;BME280;5411;58.386;15.560;2023-02-13T03:23:08;101498.75;;;4.93;100.00
10720;BME280;5411;58.386;15.560;2023-02-13T03:25:56;101497.09;;;4.92;100.00
10720;BME280;5411;58.386;15.560;2023-02-13T03:28:34;101488.31;;;4.92;100.00
10720;BME280;5411;58.386;15.560;2023-02-13T03:31:30;101483.13;;;4.90;100.00
10720;BME280;5411;58.386;15.560;2023-02-13T03:34:03;101481.47;;;4.89;100.00
10720;BME280;5411;58.386;15.560;2023-02-13T03:40:02;101475.59;;;4.86;100.00
10720;BME280;5411;58.386;15.560;2023-02-13T03:42:36;101479.22;;;4.85;100.00
10720;BME280;5411;58.386;15.560;2023-02-13T03:45:10;101474.03;;;4.83;100.00
10720;BME280;5411;58.386;15.560;2023-02-13T03:47:59;101474.47;;;4.79;100.00
10720;BME280;5411;58.386;15.560;2023-02-13T03:50:38;101478.25;;;4.76;100.00
10720;BME280;5411;58.386;15.560;2023-02-13T03:53:10;101484.50;;;4.75;100.00
10720;BME280;5411;58.386;15.560;2023-02-13T03:55:45;101479.34;;;4.74;100.00
10720;BME280;5411;58.386;15.560;2023-02-13T03:58:34;101476.38;;;4.67;100.00
10720;BME280;5411;58.386;15.560;2023-02-13T04:01:25;101494.81;;;4.69;100.00
10720;BME280;5411;58.386;15.560;2023-02-13T04:03:58;101474.88;;;4.64;100.00
10720;BME280;5411;58.386;15.560;2023-02-13T04:06:31;101474.31;;;4.61;100.00
10720;BME280;5411;58.386;15.560;2023-02-13T04:09:01;101468.16;;;4.60;100.00
10720;BME280;5411;58.386;15.560;2023-02-13T04:11:34;101479.72;;;4.59;100.00
10720;BME280;5411;58.386;15.560;2023-02-13T04:14:07;101481.69;;;4.57;100.00
10720;BME280;5411;58.386;15.560;2023-02-13T04:16:40;101482.78;;;4.55;100.00
10720;BME280;5411;58.386;15.560;2023-02-13T04:19:10;101488.38;;;4.52;100.00
10720;BME280;5411;58.386;15.560;2023-02-13T04:21:39;101488.50;;;4.50;100.00
10720;BME280;5411;58.386;15.560;2023-02-13T04:24:08;101486.84;;;4.49;100.00
10720;BME280;5411;58.386;15.560;2023-02-13T04:26:41;101484.44;;;4.46;100.00
10720;BME280;5411;58.386;15.560;2023-02-13T04:29:10;101485.28;;;4.47;100.00
10720;BME280;5411;58.386;15.560;2023-02-13T04:31:39;101482.91;;;4.44;100.00
10720;BME280;5411;58.386;15.560;2023-02-13T04:34:11;101495.88;;;4.47;100.00
10720;BME280;5411;58.386;15.560;2023-02-13T04:36:41;101491.69;;;4.44;100.00
10720;BME280;5411;58.386;15.560;2023-02-13T04:39:24;101489.88;;;4.45;100.00
10720;BME280;5411;58.386;15.560;2023-02-13T04:41:54;101496.28;;;4.42;100.00
10720;BME280;5411;58.386;15.560;2023-02-13T04:44:22;101490.00;;;4.43;100.00
10720;BME280;5411;58.386;15.560;2023-02-13T04:46:50;101484.56;;;4.45;100.00
10720;BME280;5411;58.386;15.560;2023-02-13T04:49:19;101488.91;;;4.46;100.00
10720;BME280;5411;58.386;15.560;2023-02-13T04:51:48;101467.84;;;4.44;100.00
10720;BME280;5411;58.386;15.560;2023-02-13T04:54:17;101478.31;;;4.46;100.00
10720;BME280;5411;58.386;15.560;2023-02-13T04:56:45;101479.97;;;4.47;100.00
10720;BME280;5411;58.386;15.560;2023-02-13T04:59:15;101476.38;;;4.48;100.00
10720;BME280;5411;58.386;15.560;2023-02-13T05:01:43;101484.19;;;4.49;100.00
10720;BME280;5411;58.386;15.560;2023-02-13T05:04:13;101479.72;;;4.50;100.00
10720;BME280;5411;58.386;15.560;2023-02-13T05:06:43;101485.03;;;4.50;100.00
10720;BME280;5411;58.386;15.560;2023-02-13T05:09:11;101489.47;;;4.49;100.00
10720;BME280;5411;58.386;15.560;2023-02-13T05:11:40;101486.84;;;4.49;100.00
10720;BME280;5411;58.386;15.560;2023-02-13T05:14:09;101479.00;;;4.48;100.00
10720;BME280;5411;58.386;15.560;2023-02-13T05:16:38;101488.78;;;4.47;100.00
10720;BME280;5411;58.386;15.560;2023-02-13T05:19:07;101485.28;;;4.47;100.00
10720;BME280;5411;58.386;15.560;2023-02-13T05:21:36;101484.56;;;4.45;100.00
10720;BME280;5411;58.386;15.560;2023-02-13T05:24:21;101499.63;;;4.44;100.00
10720;BME280;5411;58.386;15.560;2023-02-13T05:26:55;101485.69;;;4.42;100.00
10720;BME280;5411;58.386;15.560;2023-02-13T05:29:24;101482.47;;;4.39;100.00
10720;BME280;5411;58.386;15.560;2023-02-13T05:31:55;101484.28;;;4.38;100.00
10720;BME280;5411;58.386;15.560;2023-02-13T05:34:26;101470.47;;;4.35;100.00
10720;BME280;5411;58.386;15.560;2023-02-13T05:36:54;101467.38;;;4.29;100.00
10720;BME280;5411;58.386;15.560;2023-02-13T05:39:22;101471.28;;;4.25;100.00
10720;BME280;5411;58.386;15.560;2023-02-13T05:41:54;101472.13;;;4.26;100.00
10720;BME280;5411;58.386;15.560;2023-02-13T05:44:23;101475.75;;;4.25;100.00
10720;BME280;5411;58.386;15.560;2023-02-13T05:46:51;101473.22;;;4.23;100.00
10720;BME280;5411;58.386;15.560;2023-02-13T05:49:21;101468.31;;;4.19;100.00
10720;BME280;5411;58.386;15.560;2023-02-13T05:51:50;101466.66;;;4.18;100.00
10720;BME280;5411;58.386;15.560;2023-02-13T05:54:19;101476.41;;;4.17;100.00
10720;BME280;5411;58.386;15.560;2023-02-13T05:56:49;101485.44;;;4.15;100.00
10720;BME280;5411;58.386;15.560;2023-02-13T05:59:21;101496.31;;;4.12;100.00
10720;BME280;5411;58.386;15.560;2023-02-13T06:01:50;101498.25;;;4.10;100.00
10720;BME280;5411;58.386;15.560;2023-02-13T06:04:21;101509.97;;;4.07;100.00
10720;BME280;5411;58.386;15.560;2023-02-13T06:06:50;101509.81;;;4.09;100.00
10720;BME280;5411;58.386;15.560;2023-02-13T06:09:18;101507.19;;;4.09;100.00
10720;BME280;5411;58.386;15.560;2023-02-13T06:11:46;101509.97;;;4.07;100.00
10720;BME280;5411;58.386;15.560;2023-02-13T06:14:15;101513.44;;;4.08;100.00
10720;BME280;5411;58.386;15.560;2023-02-13T06:16:43;101518.63;;;4.09;100.00
10720;BME280;5411;58.386;15.560;2023-02-13T06:19:13;101513.31;;;4.09;100.00
10720;BME280;5411;58.386;15.560;2023-02-13T06:21:43;101512.34;;;4.10;100.00
10720;BME280;5411;58.386;15.560;2023-02-13T06:24:11;101504.41;;;4.10;100.00
10720;BME280;5411;58.386;15.560;2023-02-13T06:26:39;101506.47;;;4.07;100.00
10720;BME280;5411;58.386;15.560;2023-02-13T06:29:07;101502.72;;;4.09;100.00
10720;BME280;5411;58.386;15.560;2023-02-13T06:31:37;101506.22;;;4.10;100.00
10720;BME280;5411;58.386;15.560;2023-02-13T06:34:05;101514.16;;;4.10;100.00
10720;BME280;5411;58.386;15.560;2023-02-13T06:36:34;101519.56;;;4.08;100.00
10720;BME280;5411;58.386;15.560;2023-02-13T06:39:04;101517.78;;;4.09;100.00
10720;BME280;5411;58.386;15.560;2023-02-13T06:41:33;101516.94;;;4.08;100.00
10720;BME280;5411;58.386;15.560;2023-02-13T06:44:01;101505.75;;;4.05;100.00
10720;BME280;5411;58.386;15.560;2023-02-13T06:46:29;101519.84;;;4.05;100.00
10720;BME280;5411;58.386;15.560;2023-02-13T06:48:57;101527.78;;;4.05;100.00
10720;BME280;5411;58.386;15.560;2023-02-13T06:51:27;101521.66;;;4.05;100.00
10720;BME280;5411;58.386;15.560;2023-02-13T06:53:55;101517.19;;;4.05;100.00
10720;BME280;5411;58.386;15.560;2023-02-13T06:56:25;101522.47;;;4.05;100.00
10720;BME280;5411;58.386;15.560;2023-02-13T06:58:54;101512.03;;;4.04;100.00
10720;BME280;5411;58.386;15.560;2023-02-13T07:01:22;101517.91;;;4.07;100.00
10720;BME280;5411;58.386;15.560;2023-02-13T07:03:51;101523.19;;;4.07;100.00
10720;BME280;5411;58.386;15.560;2023-02-13T07:06:19;101536.19;;;4.10;100.00
10720;BME280;5411;58.386;15.560;2023-02-13T07:08:48;101547.75;;;4.09;100.00
10720;BME280;5411;58.386;15.560;2023-02-13T07:11:23;101556.22;;;4.13;100.00
10720;BME280;5411;58.386;15.560;2023-02-13T07:13:53;101564.75;;;4.16;100.00
10720;BME280;5411;58.386;15.560;2023-02-13T07:16:21;101577.03;;;4.17;100.00
10720;BME280;5411;58.386;15.560;2023-02-13T07:18:49;101561.03;;;4.19;100.00
10720;BME280;5411;58.386;15.560;2023-02-13T07:21:18;101569.97;;;4.27;100.00
10720;BME280;5411;58.386;15.560;2023-02-13T07:23:46;101572.38;;;4.30;100.00
10720;BME280;5411;58.386;15.560;2023-02-13T07:26:14;101576.81;;;4.30;100.00
10720;BME280;5411;58.386;15.560;2023-02-13T07:28:43;101592.06;;;4.38;100.00
10720;BME280;5411;58.386;15.560;2023-02-13T07:31:13;101603.22;;;4.41;100.00
10720;BME280;5411;58.386;15.560;2023-02-13T07:33:41;101602.00;;;4.45;100.00
10720;BME280;5411;58.386;15.560;2023-02-13T07:36:09;101606.31;;;4.46;100.00
10720;BME280;5411;58.386;15.560;2023-02-13T07:38:37;101607.75;;;4.50;100.00
10720;BME280;5411;58.386;15.560;2023-02-13T07:41:06;101608.59;;;4.51;100.00
10720;BME280;5411;58.386;15.560;2023-02-13T07:43:34;101614.44;;;4.54;100.00
10720;BME280;5411;58.386;15.560;2023-02-13T07:46:03;101602.88;;;4.55;100.00
10720;BME280;5411;58.386;15.560;2023-02-13T07:48:34;101597.56;;;4.55;100.00
10720;BME280;5411;58.386;15.560;2023-02-13T07:51:04;101591.31;;;4.56;100.00
10720;BME280;5411;58.386;15.560;2023-02-13T07:53:33;101579.84;;;4.56;100.00
10720;BME280;5411;58.386;15.560;2023-02-13T07:56:04;101583.59;;;4.53;100.00
10720;BME280;5411;58.386;15.560;2023-02-13T07:58:33;101574.81;;;4.53;100.00
10720;BME280;5411;58.386;15.560;2023-02-13T08:01:05;101581.81;;;4.54;100.00
10720;BME280;5411;58.386;15.560;2023-02-13T08:03:36;101590.59;;;4.54;100.00
10720;BME280;5411;58.386;15.560;2023-02-13T08:06:05;101583.78;;;4.52;100.00
10720;BME280;5411;58.386;15.560;2023-02-13T08:08:34;101594.09;;;4.55;100.00
10720;BME280;5411;58.386;15.560;2023-02-13T08:11:05;101593.56;;;4.61;100.00
10720;BME280;5411;58.386;15.560;2023-02-13T08:13:52;101562.34;;;4.64;100.00
10720;BME280;5411;58.386;15.560;2023-02-13T08:16:20;101557.72;;;4.66;100.00
10720;BME280;5411;58.386;15.560;2023-02-13T08:18:49;101559.69;;;4.74;100.00
10720;BME280;5411;58.386;15.560;2023-02-13T08:21:18;101559.72;;;4.84;100.00
10720;BME280;5411;58.386;15.560;2023-02-13T08:23:46;101571.19;;;4.94;100.00
10720;BME280;5411;58.386;15.560;2023-02-13T08:26:17;101552.94;;;5.00;100.00
10720;BME280;5411;58.386;15.560;2023-02-13T08:28:46;101550.00;;;5.04;100.00
10720;BME280;5411;58.386;15.560;2023-02-13T08:31:14;101550.53;;;5.07;100.00
10720;BME280;5411;58.386;15.560;2023-02-13T08:33:43;101564.09;;;5.04;100.00
10720;BME280;5411;58.386;15.560;2023-02-13T08:36:13;101572.19;;;5.03;100.00
10720;BME280;5411;58.386;15.560;2023-02-13T08:38:42;101580.84;;;5.05;100.00
10720;BME280;5411;58.386;15.560;2023-02-13T08:41:10;101578.47;;;5.11;100.00
10720;BME280;5411;58.386;15.560;2023-02-13T08:43:38;101584.09;;;5.18;100.00
10720;BME280;5411;58.386;15.560;2023-02-13T08:46:07;101591.47;;;5.24;100.00
10720;BME280;5411;58.386;15.560;2023-02-13T08:48:36;101604.63;;;5.25;100.00
10720;BME280;5411;58.386;15.560;2023-02-13T08:51:06;101599.44;;;5.24;100.00
10720;BME280;5411;58.386;15.560;2023-02-13T08:53:37;101590.66;;;5.33;100.00
10720;BME280;5411;58.386;15.560;2023-02-13T08:56:06;101585.78;;;5.38;100.00
10720;BME280;5411;58.386;15.560;2023-02-13T08:58:34;101588.56;;;5.46;100.00
10720;BME280;5411;58.386;15.560;2023-02-13T09:01:04;101604.06;;;5.51;100.00
10720;BME280;5411;58.386;15.560;2023-02-13T09:03:33;101606.88;;;5.59;100.00
10720;BME280;5411;58.386;15.560;2023-02-13T09:06:02;101603.94;;;5.62;100.00
10720;BME280;5411;58.386;15.560;2023-02-13T09:08:31;101613.59;;;5.72;100.00
10720;BME280;5411;58.386;15.560;2023-02-13T09:11:03;101624.47;;;5.79;100.00
10720;BME280;5411;58.386;15.560;2023-02-13T09:13:34;101622.53;;;5.81;100.00
10720;BME280;5411;58.386;15.560;2023-02-13T09:16:04;101625.44;;;5.88;100.00
10720;BME280;5411;58.386;15.560;2023-02-13T09:18:33;101640.00;;;5.93;100.00
10720;BME280;5411;58.386;15.560;2023-02-13T09:21:03;101642.94;;;6.00;100.00
10720;BME280;5411;58.386;15.560;2023-02-13T09:23:33;101652.16;;;6.05;100.00
10720;BME280;5411;58.386;15.560;2023-02-13T09:26:05;101646.13;;;6.13;100.00
10720;BME280;5411;58.386;15.560;2023-02-13T09:28:34;101651.72;;;6.20;100.00
10720;BME280;5411;58.386;15.560;2023-02-13T09:31:04;101658.31;;;6.25;100.00
10720;BME280;5411;58.386;15.560;2023-02-13T09:33:33;101652.81;;;6.27;100.00
10720;BME280;5411;58.386;15.560;2023-02-13T09:36:05;101661.06;;;6.33;100.00
10720;BME280;5411;58.386;15.560;2023-02-13T09:38:34;101667.09;;;6.35;100.00
10720;BME280;5411;58.386;15.560;2023-02-13T09:41:06;101664.81;;;6.40;100.00
10720;BME280;5411;58.386;15.560;2023-02-13T09:43:41;101649.16;;;6.47;100.00
10720;BME280;5411;58.386;15.560;2023-02-13T09:46:14;101662.03;;;6.52;100.00
10720;BME280;5411;58.386;15.560;2023-02-13T09:48:46;101665.75;;;6.59;100.00
10720;BME280;5411;58.386;15.560;2023-02-13T09:51:19;101668.84;;;6.64;100.00
10720;BME280;5411;58.386;15.560;2023-02-13T09:53:54;101669.50;;;6.66;99.85
10720;BME280;5411;58.386;15.560;2023-02-13T09:56:37;101672.72;;;6.79;99.44
10720;BME280;5411;58.386;15.560;2023-02-13T09:59:16;101676.31;;;6.88;99.02
10720;BME280;5411;58.386;15.560;2023-02-13T10:01:51;101673.34;;;6.91;98.66
10720;BME280;5411;58.386;15.560;2023-02-13T10:04:30;101678.06;;;6.97;97.50
10720;BME280;5411;58.386;15.560;2023-02-13T10:07:14;101675.81;;;7.02;96.79
10720;BME280;5411;58.386;15.560;2023-02-13T10:09:51;101679.03;;;7.05;97.55
10720;BME280;5411;58.386;15.560;2023-02-13T10:12:48;101672.13;;;7.12;96.55
10720;BME280;5411;58.386;15.560;2023-02-13T10:15:24;101668.72;;;7.20;96.70
10720;BME280;5411;58.386;15.560;2023-02-13T10:17:57;101665.91;;;7.22;94.99
10720;BME280;5411;58.386;15.560;2023-02-13T10:20:31;101670.50;;;7.29;96.25
10720;BME280;5411;58.386;15.560;2023-02-13T10:23:09;101671.28;;;7.39;95.74
10720;BME280;5411;58.386;15.560;2023-02-13T10:25:45;101670.69;;;7.45;95.35
10720;BME280;5411;58.386;15.560;2023-02-13T10:28:20;101685.34;;;7.49;94.94
10720;BME280;5411;58.386;15.560;2023-02-13T10:30:54;101670.63;;;7.55;94.00
10720;BME280;5411;58.386;15.560;2023-02-13T10:33:27;101668.66;;;7.57;94.45
10720;BME280;5411;58.386;15.560;2023-02-13T10:36:03;101670.97;;;7.60;93.43
10720;BME280;5411;58.386;15.560;2023-02-13T10:38:39;101663.25;;;7.67;92.09
10720;BME280;5411;58.386;15.560;2023-02-13T10:41:22;101658.59;;;7.69;92.12
10720;BME280;5411;58.386;15.560;2023-02-13T10:44:06;101674.50;;;7.78;91.09
10720;BME280;5411;58.386;15.560;2023-02-13T10:46:45;101668.50;;;7.76;91.65
10720;BME280;5411;58.386;15.560;2023-02-13T10:49:33;101665.28;;;7.73;90.99
10720;BME280;5411;58.386;15.560;2023-02-13T10:52:17;101664.00;;;7.77;91.08
10720;BME280;5411;58.386;15.560;2023-02-13T10:55:00;101675.72;;;7.84;90.50
10720;BME280;5411;58.386;15.560;2023-02-13T10:57:43;101673.06;;;7.84;90.68
10720;BME280;5411;58.386;15.560;2023-02-13T11:00:24;101666.06;;;7.83;90.51
10720;BME280;5411;58.386;15.560;2023-02-13T11:02:58;101668.66;;;7.93;90.55
10720;BME280;5411;58.386;15.560;2023-02-13T11:05:31;101673.53;;;7.97;89.84
10720;BME280;5411;58.386;15.560;2023-02-13T11:07:59;101671.38;;;8.01;89.52
10720;BME280;5411;58.386;15.560;2023-02-13T11:10:30;101682.03;;;8.01;88.88
10720;BME280;5411;58.386;15.560;2023-02-13T11:13:14;101684.94;;;8.07;89.57
10720;BME280;5411;58.386;15.560;2023-02-13T11:15:55;101683.63;;;8.11;88.64
10720;BME280;5411;58.386;15.560;2023-02-13T11:18:26;101684.63;;;8.10;88.81
10720;BME280;5411;58.386;15.560;2023-02-13T11:21:00;101691.16;;;8.16;88.91
10720;BME280;5411;58.386;15.560;2023-02-13T11:23:36;101688.34;;;8.17;88.37
10720;BME280;5411;58.386;15.560;2023-02-13T11:26:07;101687.19;;;8.20;88.22
10720;BME280;5411;58.386;15.560;2023-02-13T11:28:37;101701.72;;;8.26;88.58
10720;BME280;5411;58.386;15.560;2023-02-13T11:31:17;101685.41;;;8.29;87.77
10720;BME280;5411;58.386;15.560;2023-02-13T11:33:46;101696.09;;;8.29;86.73
10720;BME280;5411;58.386;15.560;2023-02-13T11:36:16;101701.72;;;8.26;86.18
10720;BME280;5411;58.386;15.560;2023-02-13T11:38:56;101705.22;;;8.26;86.64
10720;BME280;5411;58.386;15.560;2023-02-13T11:41:27;101714.91;;;8.27;85.22
10720;BME280;5411;58.386;15.560;2023-02-13T11:43:58;101706.75;;;8.29;84.80
10720;BME280;5411;58.386;15.560;2023-02-13T11:46:42;101704.91;;;8.29;84.91
10720;BME280;5411;58.386;15.560;2023-02-13T11:49:18;101714.31;;;8.33;84.57
10720;BME280;5411;58.386;15.560;2023-02-13T11:51:50;101717.69;;;8.35;84.56
10720;BME280;5411;58.386;15.560;2023-02-13T11:54:26;101717.69;;;8.35;84.63
10720;BME280;5411;58.386;15.560;2023-02-13T11:56:58;101718.53;;;8.36;84.12
10720;BME280;5411;58.386;15.560;2023-02-13T11:59:39;101717.53;;;8.37;84.40
10720;BME280;5411;58.386;15.560;2023-02-13T12:02:15;101710.66;;;8.34;83.31
10720;BME280;5411;58.386;15.560;2023-02-13T12:04:46;101717.16;;;8.32;83.65
10720;BME280;5411;58.386;15.560;2023-02-13T12:07:18;101720.34;;;8.35;83.85
10720;BME280;5411;58.386;15.560;2023-02-13T12:09:50;101723.75;;;8.45;83.99
10720;BME280;5411;58.386;15.560;2023-02-13T12:12:26;101730.22;;;8.43;83.38
10720;BME280;5411;58.386;15.560;2023-02-13T12:14:57;101724.75;;;8.44;84.25
10720;BME280;5411;58.386;15.560;2023-02-13T12:17:30;101728.63;;;8.50;84.29
10720;BME280;5411;58.386;15.560;2023-02-13T12:19:59;101724.00;;;8.52;83.56
10720;BME280;5411;58.386;15.560;2023-02-13T12:22:31;101722.31;;;8.51;83.11
10720;BME280;5411;58.386;15.560;2023-02-13T12:25:45;101741.63;;;8.53;83.92
10720;BME280;5411;58.386;15.560;2023-02-13T12:28:17;101730.13;;;8.52;83.87
10720;BME280;5411;58.386;15.560;2023-02-13T12:31:22;101736.00;;;8.56;83.21
10720;BME280;5411;58.386;15.560;2023-02-13T12:37:18;101733.72;;;8.61;83.97
10720;BME280;5411;58.386;15.560;2023-02-13T12:40:01;101736.72;;;8.66;83.48
10720;BME280;5411;58.386;15.560;2023-02-13T12:42:47;101744.91;;;8.65;83.17
10720;BME280;5411;58.386;15.560;2023-02-13T12:45:31;101736.91;;;8.65;82.94
10720;BME280;5411;58.386;15.560;2023-02-13T12:48:23;101725.41;;;8.64;82.36
10720;BME280;5411;58.386;15.560;2023-02-13T12:51:01;101722.06;;;8.62;81.91
10720;BME280;5411;58.386;15.560;2023-02-13T12:53:51;101736.91;;;8.65;82.03
10720;BME280;5411;58.386;15.560;2023-02-13T12:56:36;101746.41;;;8.67;82.39
10720;BME280;5411;58.386;15.560;2023-02-13T12:59:09;101739.94;;;8.70;81.91
10720;BME280;5411;58.386;15.560;2023-02-13T13:02:02;101750.59;;;8.70;81.91
10720;BME280;5411;58.386;15.560;2023-02-13T13:04:47;101759.13;;;8.73;81.88
10720;BME280;5411;58.386;15.560;2023-02-13T13:07:28;101752.66;;;8.76;81.71
10720;BME280;5411;58.386;15.560;2023-02-13T13:10:23;101756.16;;;8.76;81.77
10720;BME280;5411;58.386;15.560;2023-02-13T13:12:58;101752.97;;;8.73;81.62
10720;BME280;5411;58.386;15.560;2023-02-13T13:15:36;101757.31;;;8.74;81.63
10720;BME280;5411;58.386;15.560;2023-02-13T13:18:19;101759.00;;;8.75;81.58
10720;BME280;5411;58.386;15.560;2023-02-13T13:20:58;101755.47;;;8.74;81.90
10720;BME280;5411;58.386;15.560;2023-02-13T13:23:32;101758.84;;;8.76;81.35
10720;BME280;5411;58.386;15.560;2023-02-13T13:26:13;101766.84;;;8.76;81.56
10720;BME280;5411;58.386;15.560;2023-02-13T13:28:49;101761.16;;;8.79;81.82
10720;BME280;5411;58.386;15.560;2023-02-13T13:31:20;101767.34;;;8.80;80.96
10720;BME280;5411;58.386;15.560;2023-02-13T13:33:51;101773.22;;;8.83;81.27
10720;BME280;5411;58.386;15.560;2023-02-13T13:36:33;101783.06;;;8.83;81.40
10720;BME280;5411;58.386;15.560;2023-02-13T13:39:14;101772.22;;;8.84;81.45